sensor_id;sensor_type;location;lat;lon;timestamp;P1;durP1;ratioP1;P2;durP2;ratioP2
41923;SDS011;27613;48.116;11.656;2023-07-16T00:00:20;5.47;;;2.85;;
41923;SDS011;27613;48.116;11.656;2023-07-16T00:02:46;3.63;;;2.50;;
41923;SDS011;27613;48.116;11.656;2023-07-16T00:05:11;3.40;;;2.28;;
41923;SDS011;27613;48.116;11.656;2023-07-16T00:07:37;6.40;;;2.25;;
41923;SDS011;27613;48.116;11.656;2023-07-16T00:10:03;3.25;;;2.15;;
41923;SDS011;27613;48.116;11.656;2023-07-16T00:12:28;6.05;;;2.53;;
41923;SDS011;27613;48.116;11.656;2023-07-16T00:14:54;3.40;;;2.50;;
41923;SDS011;27613;48.116;11.656;2023-07-16T00:17:20;6.10;;;2.60;;
41923;SDS011;27613;48.116;11.656;2023-07-16T00:19:45;3.30;;;2.58;;
41923;SDS011;27613;48.116;11.656;2023-07-16T00:22:11;4.15;;;2.25;;
41923;SDS011;27613;48.116;11.656;2023-07-16T00:24:37;4.35;;;2.38;;
41923;SDS011;27613;48.116;11.656;2023-07-16T00:27:02;4.03;;;2.38;;
41923;SDS011;27613;48.116;11.656;2023-07-16T00:29:28;4.60;;;2.33;;
41923;SDS011;27613;48.116;11.656;2023-07-16T00:31:54;2.65;;;2.10;;
41923;SDS011;27613;48.116;11.656;2023-07-16T00:34:19;4.10;;;2.45;;
41923;SDS011;27613;48.116;11.656;2023-07-16T00:36:45;4.72;;;2.50;;
41923;SDS011;27613;48.116;11.656;2023-07-16T00:39:10;4.05;;;2.30;;
41923;SDS011;27613;48.116;11.656;2023-07-16T00:41:36;4.00;;;2.60;;
41923;SDS011;27613;48.116;11.656;2023-07-16T00:44:01;4.07;;;2.50;;
41923;SDS011;27613;48.116;11.656;2023-07-16T00:46:27;3.03;;;2.20;;
41923;SDS011;27613;48.116;11.656;2023-07-16T00:48:53;4.78;;;2.38;;
41923;SDS011;27613;48.116;11.656;2023-07-16T00:51:19;4.47;;;2.65;;
41923;SDS011;27613;48.116;11.656;2023-07-16T00:53:47;4.20;;;2.67;;
41923;SDS011;27613;48.116;11.656;2023-07-16T00:56:13;4.03;;;2.40;;
41923;SDS011;27613;48.116;11.656;2023-07-16T00:58:42;4.00;;;2.83;;
41923;SDS011;27613;48.116;11.656;2023-07-16T01:01:08;6.55;;;2.72;;
41923;SDS011;27613;48.116;11.656;2023-07-16T01:03:33;4.25;;;2.75;;
41923;SDS011;27613;48.116;11.656;2023-07-16T01:09:09;3.83;;;2.75;;
41923;SDS011;27613;48.116;11.656;2023-07-16T01:11:40;4.07;;;2.47;;
41923;SDS011;27613;48.116;11.656;2023-07-16T01:14:07;3.63;;;2.60;;
41923;SDS011;27613;48.116;11.656;2023-07-16T01:16:33;5.93;;;3.67;;
41923;SDS011;27613;48.116;11.656;2023-07-16T01:18:59;3.90;;;2.72;;
41923;SDS011;27613;48.116;11.656;2023-07-16T01:21:24;5.53;;;3.33;;
41923;SDS011;27613;48.116;11.656;2023-07-16T01:31:54;4.60;;;3.00;;
41923;SDS011;27613;48.116;11.656;2023-07-16T01:34:21;4.90;;;3.10;;
41923;SDS011;27613;48.116;11.656;2023-07-16T01:36:49;4.13;;;2.80;;
41923;SDS011;27613;48.116;11.656;2023-07-16T01:39:14;5.93;;;2.78;;
41923;SDS011;27613;48.116;11.656;2023-07-16T01:41:41;4.88;;;2.92;;
41923;SDS011;27613;48.116;11.656;2023-07-16T01:44:06;5.28;;;3.38;;
41923;SDS011;27613;48.116;11.656;2023-07-16T01:46:32;3.90;;;3.03;;
41923;SDS011;27613;48.116;11.656;2023-07-16T01:48:57;3.67;;;2.92;;
41923;SDS011;27613;48.116;11.656;2023-07-16T01:51:23;5.30;;;2.90;;
41923;SDS011;27613;48.116;11.656;2023-07-16T01:53:48;4.00;;;2.90;;
41923;SDS011;27613;48.116;11.656;2023-07-16T01:56:14;6.07;;;3.03;;
41923;SDS011;27613;48.116;11.656;2023-07-16T01:58:39;3.78;;;2.88;;
41923;SDS011;27613;48.116;11.656;2023-07-16T02:01:05;4.72;;;2.90;;
41923;SDS011;27613;48.116;11.656;2023-07-16T02:03:30;5.10;;;3.00;;
41923;SDS011;27613;48.116;11.656;2023-07-16T02:05:56;4.40;;;3.00;;
41923;SDS011;27613;48.116;11.656;2023-07-16T02:08:21;5.20;;;3.05;;
41923;SDS011;27613;48.116;11.656;2023-07-16T02:10:47;4.32;;;3.00;;
41923;SDS011;27613;48.116;11.656;2023-07-16T02:13:13;5.40;;;3.28;;
41923;SDS011;27613;48.116;11.656;2023-07-16T02:15:38;4.65;;;2.88;;
41923;SDS011;27613;48.116;11.656;2023-07-16T02:18:04;6.00;;;3.72;;
41923;SDS011;27613;48.116;11.656;2023-07-16T02:20:30;5.07;;;3.28;;
41923;SDS011;27613;48.116;11.656;2023-07-16T02:22:56;4.40;;;3.25;;
41923;SDS011;27613;48.116;11.656;2023-07-16T02:25:22;4.75;;;3.10;;
41923;SDS011;27613;48.116;11.656;2023-07-16T02:27:47;11.50;;;3.67;;
41923;SDS011;27613;48.116;11.656;2023-07-16T02:30:16;4.47;;;3.00;;
41923;SDS011;27613;48.116;11.656;2023-07-16T02:32:42;6.05;;;3.35;;
41923;SDS011;27613;48.116;11.656;2023-07-16T02:35:07;6.32;;;3.40;;
41923;SDS011;27613;48.116;11.656;2023-07-16T02:37:33;4.40;;;3.13;;
41923;SDS011;27613;48.116;11.656;2023-07-16T02:39:59;7.65;;;3.55;;
41923;SDS011;27613;48.116;11.656;2023-07-16T02:42:24;5.03;;;3.22;;
41923;SDS011;27613;48.116;11.656;2023-07-16T02:44:51;4.40;;;3.15;;
41923;SDS011;27613;48.116;11.656;2023-07-16T02:47:16;3.90;;;3.00;;
41923;SDS011;27613;48.116;11.656;2023-07-16T02:49:42;5.22;;;3.25;;
41923;SDS011;27613;48.116;11.656;2023-07-16T02:52:07;5.30;;;3.03;;
41923;SDS011;27613;48.116;11.656;2023-07-16T02:54:33;5.60;;;3.17;;
41923;SDS011;27613;48.116;11.656;2023-07-16T02:57:00;4.88;;;3.33;;
41923;SDS011;27613;48.116;11.656;2023-07-16T02:59:26;8.90;;;2.88;;
41923;SDS011;27613;48.116;11.656;2023-07-16T03:01:51;5.25;;;3.05;;
41923;SDS011;27613;48.116;11.656;2023-07-16T03:04:17;3.75;;;2.63;;
41923;SDS011;27613;48.116;11.656;2023-07-16T03:06:42;4.13;;;2.90;;
41923;SDS011;27613;48.116;11.656;2023-07-16T03:09:08;3.72;;;3.00;;
41923;SDS011;27613;48.116;11.656;2023-07-16T03:11:33;4.75;;;2.65;;
41923;SDS011;27613;48.116;11.656;2023-07-16T03:13:59;3.53;;;2.80;;
41923;SDS011;27613;48.116;11.656;2023-07-16T03:16:25;5.40;;;3.08;;
41923;SDS011;27613;48.116;11.656;2023-07-16T03:18:50;3.20;;;2.10;;
41923;SDS011;27613;48.116;11.656;2023-07-16T03:21:16;3.05;;;2.35;;
41923;SDS011;27613;48.116;11.656;2023-07-16T03:23:41;6.22;;;3.00;;
41923;SDS011;27613;48.116;11.656;2023-07-16T03:26:07;4.43;;;2.70;;
41923;SDS011;27613;48.116;11.656;2023-07-16T03:28:33;5.25;;;2.25;;
41923;SDS011;27613;48.116;11.656;2023-07-16T03:30:58;4.68;;;2.80;;
41923;SDS011;27613;48.116;11.656;2023-07-16T03:33:24;4.70;;;2.70;;
41923;SDS011;27613;48.116;11.656;2023-07-16T03:35:49;3.78;;;2.05;;
41923;SDS011;27613;48.116;11.656;2023-07-16T03:38:15;4.43;;;2.10;;
41923;SDS011;27613;48.116;11.656;2023-07-16T03:40:46;2.30;;;1.67;;
41923;SDS011;27613;48.116;11.656;2023-07-16T03:43:12;2.20;;;1.60;;
41923;SDS011;27613;48.116;11.656;2023-07-16T03:45:38;2.10;;;1.60;;
41923;SDS011;27613;48.116;11.656;2023-07-16T03:48:04;2.83;;;1.80;;
41923;SDS011;27613;48.116;11.656;2023-07-16T03:50:30;3.50;;;1.75;;
41923;SDS011;27613;48.116;11.656;2023-07-16T03:52:57;4.38;;;1.95;;
41923;SDS011;27613;48.116;11.656;2023-07-16T03:55:22;2.63;;;1.80;;
41923;SDS011;27613;48.116;11.656;2023-07-16T03:57:48;9.23;;;2.55;;
41923;SDS011;27613;48.116;11.656;2023-07-16T04:00:13;3.00;;;2.13;;
41923;SDS011;27613;48.116;11.656;2023-07-16T04:02:39;6.38;;;1.90;;
41923;SDS011;27613;48.116;11.656;2023-07-16T04:05:05;3.67;;;1.90;;
41923;SDS011;27613;48.116;11.656;2023-07-16T04:07:31;3.15;;;2.17;;
41923;SDS011;27613;48.116;11.656;2023-07-16T04:09:56;2.92;;;1.92;;
41923;SDS011;27613;48.116;11.656;2023-07-16T04:12:22;3.72;;;2.00;;
41923;SDS011;27613;48.116;11.656;2023-07-16T04:14:48;5.38;;;2.28;;
41923;SDS011;27613;48.116;11.656;2023-07-16T04:17:13;2.28;;;1.83;;
41923;SDS011;27613;48.116;11.656;2023-07-16T04:19:39;2.22;;;1.55;;
41923;SDS011;27613;48.116;11.656;2023-07-16T04:22:04;2.38;;;1.50;;
41923;SDS011;27613;48.116;11.656;2023-07-16T04:24:30;1.75;;;1.20;;
41923;SDS011;27613;48.116;11.656;2023-07-16T04:26:58;1.88;;;1.48;;
41923;SDS011;27613;48.116;11.656;2023-07-16T04:29:24;2.35;;;1.63;;
41923;SDS011;27613;48.116;11.656;2023-07-16T04:31:49;4.82;;;2.55;;
41923;SDS011;27613;48.116;11.656;2023-07-16T04:34:15;3.60;;;2.17;;
41923;SDS011;27613;48.116;11.656;2023-07-16T04:36:41;4.68;;;2.22;;
41923;SDS011;27613;48.116;11.656;2023-07-16T04:39:07;3.25;;;1.98;;
41923;SDS011;27613;48.116;11.656;2023-07-16T04:41:33;4.03;;;2.40;;
41923;SDS011;27613;48.116;11.656;2023-07-16T04:43:59;3.00;;;2.13;;
41923;SDS011;27613;48.116;11.656;2023-07-16T04:46:24;3.40;;;2.25;;
41923;SDS011;27613;48.116;11.656;2023-07-16T04:48:50;3.20;;;2.13;;
41923;SDS011;27613;48.116;11.656;2023-07-16T04:51:15;3.17;;;2.10;;
41923;SDS011;27613;48.116;11.656;2023-07-16T04:53:41;3.50;;;2.05;;
41923;SDS011;27613;48.116;11.656;2023-07-16T04:56:13;3.47;;;2.08;;
41923;SDS011;27613;48.116;11.656;2023-07-16T04:58:39;3.30;;;2.03;;
41923;SDS011;27613;48.116;11.656;2023-07-16T05:01:05;3.05;;;1.98;;
41923;SDS011;27613;48.116;11.656;2023-07-16T05:03:31;6.65;;;2.70;;
41923;SDS011;27613;48.116;11.656;2023-07-16T05:05:57;4.65;;;2.33;;
41923;SDS011;27613;48.116;11.656;2023-07-16T05:08:22;3.92;;;2.10;;
41923;SDS011;27613;48.116;11.656;2023-07-16T05:10:48;3.38;;;2.25;;
41923;SDS011;27613;48.116;11.656;2023-07-16T05:13:14;3.67;;;2.38;;
41923;SDS011;27613;48.116;11.656;2023-07-16T05:15:40;2.72;;;1.90;;
41923;SDS011;27613;48.116;11.656;2023-07-16T05:18:08;3.10;;;2.08;;
41923;SDS011;27613;48.116;11.656;2023-07-16T05:20:33;3.45;;;2.30;;
41923;SDS011;27613;48.116;11.656;2023-07-16T05:22:59;3.15;;;2.13;;
41923;SDS011;27613;48.116;11.656;2023-07-16T05:25:24;2.13;;;1.83;;
41923;SDS011;27613;48.116;11.656;2023-07-16T05:27:50;3.47;;;2.28;;
41923;SDS011;27613;48.116;11.656;2023-07-16T05:30:15;2.97;;;2.08;;
41923;SDS011;27613;48.116;11.656;2023-07-16T05:32:41;3.05;;;2.03;;
41923;SDS011;27613;48.116;11.656;2023-07-16T05:35:07;4.38;;;2.47;;
41923;SDS011;27613;48.116;11.656;2023-07-16T05:37:32;4.45;;;2.22;;
41923;SDS011;27613;48.116;11.656;2023-07-16T05:39:58;4.38;;;2.22;;
41923;SDS011;27613;48.116;11.656;2023-07-16T05:42:23;3.70;;;2.10;;
41923;SDS011;27613;48.116;11.656;2023-07-16T05:44:49;4.13;;;2.35;;
41923;SDS011;27613;48.116;11.656;2023-07-16T05:47:15;2.85;;;2.00;;
41923;SDS011;27613;48.116;11.656;2023-07-16T05:49:40;2.50;;;1.80;;
41923;SDS011;27613;48.116;11.656;2023-07-16T05:52:06;2.00;;;1.60;;
41923;SDS011;27613;48.116;11.656;2023-07-16T05:54:32;2.38;;;1.90;;
41923;SDS011;27613;48.116;11.656;2023-07-16T05:56:57;3.08;;;2.05;;
41923;SDS011;27613;48.116;11.656;2023-07-16T05:59:23;3.88;;;2.63;;
41923;SDS011;27613;48.116;11.656;2023-07-16T06:01:48;3.08;;;2.17;;
41923;SDS011;27613;48.116;11.656;2023-07-16T06:04:14;2.60;;;1.85;;
41923;SDS011;27613;48.116;11.656;2023-07-16T06:06:40;4.40;;;1.85;;
41923;SDS011;27613;48.116;11.656;2023-07-16T06:09:05;2.17;;;1.70;;
41923;SDS011;27613;48.116;11.656;2023-07-16T06:11:31;1.92;;;1.60;;
41923;SDS011;27613;48.116;11.656;2023-07-16T06:13:56;2.35;;;1.48;;
41923;SDS011;27613;48.116;11.656;2023-07-16T06:16:22;2.00;;;1.20;;
41923;SDS011;27613;48.116;11.656;2023-07-16T06:18:47;1.27;;;1.00;;
41923;SDS011;27613;48.116;11.656;2023-07-16T06:21:13;2.17;;;1.33;;
41923;SDS011;27613;48.116;11.656;2023-07-16T06:23:39;1.48;;;1.10;;
41923;SDS011;27613;48.116;11.656;2023-07-16T06:26:05;1.00;;;0.90;;
41923;SDS011;27613;48.116;11.656;2023-07-16T06:28:30;1.63;;;1.08;;
41923;SDS011;27613;48.116;11.656;2023-07-16T06:30:56;1.40;;;1.00;;
41923;SDS011;27613;48.116;11.656;2023-07-16T06:33:21;2.08;;;1.00;;
41923;SDS011;27613;48.116;11.656;2023-07-16T06:35:47;2.75;;;1.35;;
41923;SDS011;27613;48.116;11.656;2023-07-16T06:38:13;1.38;;;1.00;;
41923;SDS011;27613;48.116;11.656;2023-07-16T06:40:40;1.48;;;1.05;;
41923;SDS011;27613;48.116;11.656;2023-07-16T06:43:11;2.13;;;1.40;;
41923;SDS011;27613;48.116;11.656;2023-07-16T06:45:36;1.60;;;1.13;;
41923;SDS011;27613;48.116;11.656;2023-07-16T06:48:02;1.50;;;0.90;;
41923;SDS011;27613;48.116;11.656;2023-07-16T06:50:27;2.08;;;1.38;;
41923;SDS011;27613;48.116;11.656;2023-07-16T06:52:53;1.65;;;1.30;;
41923;SDS011;27613;48.116;11.656;2023-07-16T06:55:18;1.50;;;1.05;;
41923;SDS011;27613;48.116;11.656;2023-07-16T06:57:44;2.80;;;1.30;;
41923;SDS011;27613;48.116;11.656;2023-07-16T07:00:10;2.78;;;1.33;;
41923;SDS011;27613;48.116;11.656;2023-07-16T07:02:36;2.50;;;1.20;;
41923;SDS011;27613;48.116;11.656;2023-07-16T07:05:01;2.72;;;1.60;;
41923;SDS011;27613;48.116;11.656;2023-07-16T07:07:27;1.85;;;1.20;;
41923;SDS011;27613;48.116;11.656;2023-07-16T07:09:53;2.78;;;1.35;;
41923;SDS011;27613;48.116;11.656;2023-07-16T07:12:18;1.88;;;1.20;;
41923;SDS011;27613;48.116;11.656;2023-07-16T07:14:44;1.98;;;1.20;;
41923;SDS011;27613;48.116;11.656;2023-07-16T07:17:11;1.58;;;1.15;;
41923;SDS011;27613;48.116;11.656;2023-07-16T07:19:36;3.10;;;1.42;;
41923;SDS011;27613;48.116;11.656;2023-07-16T07:22:02;2.92;;;1.65;;
41923;SDS011;27613;48.116;11.656;2023-07-16T07:24:27;4.03;;;1.50;;
41923;SDS011;27613;48.116;11.656;2023-07-16T07:26:53;8.18;;;1.40;;
41923;SDS011;27613;48.116;11.656;2023-07-16T07:29:18;3.58;;;1.50;;
41923;SDS011;27613;48.116;11.656;2023-07-16T07:31:44;2.65;;;1.45;;
41923;SDS011;27613;48.116;11.656;2023-07-16T07:34:09;1.48;;;0.98;;
41923;SDS011;27613;48.116;11.656;2023-07-16T07:36:35;1.20;;;0.90;;
41923;SDS011;27613;48.116;11.656;2023-07-16T07:39:00;1.25;;;1.00;;
41923;SDS011;27613;48.116;11.656;2023-07-16T07:41:26;2.08;;;1.40;;
41923;SDS011;27613;48.116;11.656;2023-07-16T07:43:51;2.25;;;1.10;;
41923;SDS011;27613;48.116;11.656;2023-07-16T07:46:17;0.95;;;0.82;;
41923;SDS011;27613;48.116;11.656;2023-07-16T07:48:43;1.10;;;1.00;;
41923;SDS011;27613;48.116;11.656;2023-07-16T07:51:08;1.05;;;0.80;;
41923;SDS011;27613;48.116;11.656;2023-07-16T07:53:34;1.30;;;0.80;;
41923;SDS011;27613;48.116;11.656;2023-07-16T07:55:59;1.42;;;0.98;;
41923;SDS011;27613;48.116;11.656;2023-07-16T07:58:25;1.48;;;0.90;;
41923;SDS011;27613;48.116;11.656;2023-07-16T08:00:50;1.95;;;1.20;;
41923;SDS011;27613;48.116;11.656;2023-07-16T08:03:16;1.58;;;0.80;;
41923;SDS011;27613;48.116;11.656;2023-07-16T08:05:41;0.80;;;0.75;;
41923;SDS011;27613;48.116;11.656;2023-07-16T08:08:07;1.10;;;0.90;;
41923;SDS011;27613;48.116;11.656;2023-07-16T08:10:33;1.27;;;0.80;;
41923;SDS011;27613;48.116;11.656;2023-07-16T08:12:59;1.20;;;0.80;;
41923;SDS011;27613;48.116;11.656;2023-07-16T08:15:24;0.85;;;0.70;;
41923;SDS011;27613;48.116;11.656;2023-07-16T08:17:50;2.50;;;1.02;;
41923;SDS011;27613;48.116;11.656;2023-07-16T08:20:15;0.98;;;0.77;;
41923;SDS011;27613;48.116;11.656;2023-07-16T08:22:41;1.63;;;0.95;;
41923;SDS011;27613;48.116;11.656;2023-07-16T08:25:07;1.33;;;0.90;;
41923;SDS011;27613;48.116;11.656;2023-07-16T08:27:33;0.80;;;0.70;;
41923;SDS011;27613;48.116;11.656;2023-07-16T08:29:59;0.70;;;0.70;;
41923;SDS011;27613;48.116;11.656;2023-07-16T08:32:24;1.42;;;0.90;;
41923;SDS011;27613;48.116;11.656;2023-07-16T08:34:50;2.13;;;0.88;;
41923;SDS011;27613;48.116;11.656;2023-07-16T08:37:15;1.27;;;1.00;;
41923;SDS011;27613;48.116;11.656;2023-07-16T08:39:41;0.63;;;0.60;;
41923;SDS011;27613;48.116;11.656;2023-07-16T08:42:08;0.93;;;0.70;;
41923;SDS011;27613;48.116;11.656;2023-07-16T08:44:35;1.15;;;0.90;;
41923;SDS011;27613;48.116;11.656;2023-07-16T08:47:02;1.02;;;0.80;;
41923;SDS011;27613;48.116;11.656;2023-07-16T08:49:29;0.70;;;0.70;;
41923;SDS011;27613;48.116;11.656;2023-07-16T08:51:55;0.90;;;0.60;;
41923;SDS011;27613;48.116;11.656;2023-07-16T08:54:22;1.48;;;0.90;;
41923;SDS011;27613;48.116;11.656;2023-07-16T08:56:48;0.50;;;0.50;;
41923;SDS011;27613;48.116;11.656;2023-07-16T08:59:15;0.88;;;0.75;;
41923;SDS011;27613;48.116;11.656;2023-07-16T09:01:40;1.13;;;0.80;;
41923;SDS011;27613;48.116;11.656;2023-07-16T09:04:06;1.25;;;0.82;;
41923;SDS011;27613;48.116;11.656;2023-07-16T09:06:31;0.50;;;0.50;;
41923;SDS011;27613;48.116;11.656;2023-07-16T09:08:57;0.55;;;0.55;;
41923;SDS011;27613;48.116;11.656;2023-07-16T09:11:23;1.13;;;0.90;;
41923;SDS011;27613;48.116;11.656;2023-07-16T09:13:49;0.68;;;0.60;;
41923;SDS011;27613;48.116;11.656;2023-07-16T09:16:15;0.80;;;0.60;;
41923;SDS011;27613;48.116;11.656;2023-07-16T09:18:43;0.50;;;0.50;;
41923;SDS011;27613;48.116;11.656;2023-07-16T09:21:08;0.85;;;0.57;;
41923;SDS011;27613;48.116;11.656;2023-07-16T09:23:34;1.08;;;0.90;;
41923;SDS011;27613;48.116;11.656;2023-07-16T09:26:00;0.55;;;0.55;;
41923;SDS011;27613;48.116;11.656;2023-07-16T09:28:26;0.90;;;0.70;;
41923;SDS011;27613;48.116;11.656;2023-07-16T09:30:52;0.80;;;0.70;;
41923;SDS011;27613;48.116;11.656;2023-07-16T09:33:19;1.20;;;0.80;;
41923;SDS011;27613;48.116;11.656;2023-07-16T09:35:49;0.57;;;0.55;;
41923;SDS011;27613;48.116;11.656;2023-07-16T09:38:15;0.80;;;0.63;;
41923;SDS011;27613;48.116;11.656;2023-07-16T09:40:42;1.55;;;0.80;;
41923;SDS011;27613;48.116;11.656;2023-07-16T09:43:08;0.90;;;0.70;;
41923;SDS011;27613;48.116;11.656;2023-07-16T09:45:35;0.77;;;0.70;;
41923;SDS011;27613;48.116;11.656;2023-07-16T09:48:00;0.73;;;0.70;;
41923;SDS011;27613;48.116;11.656;2023-07-16T09:50:27;0.57;;;0.57;;
41923;SDS011;27613;48.116;11.656;2023-07-16T09:52:57;1.05;;;0.63;;
41923;SDS011;27613;48.116;11.656;2023-07-16T09:55:23;0.70;;;0.70;;
41923;SDS011;27613;48.116;11.656;2023-07-16T09:57:51;1.10;;;0.70;;
41923;SDS011;27613;48.116;11.656;2023-07-16T10:00:18;1.08;;;0.70;;
41923;SDS011;27613;48.116;11.656;2023-07-16T10:02:46;0.60;;;0.60;;
41923;SDS011;27613;48.116;11.656;2023-07-16T10:07:38;1.25;;;0.90;;
41923;SDS011;27613;48.116;11.656;2023-07-16T10:10:09;1.05;;;0.70;;
41923;SDS011;27613;48.116;11.656;2023-07-16T10:12:36;1.13;;;0.82;;
41923;SDS011;27613;48.116;11.656;2023-07-16T10:15:04;0.43;;;0.43;;
41923;SDS011;27613;48.116;11.656;2023-07-16T10:17:31;0.60;;;0.60;;
41923;SDS011;27613;48.116;11.656;2023-07-16T10:19:58;0.85;;;0.55;;
41923;SDS011;27613;48.116;11.656;2023-07-16T10:22:34;0.50;;;0.50;;
41923;SDS011;27613;48.116;11.656;2023-07-16T10:25:01;0.80;;;0.70;;
41923;SDS011;27613;48.116;11.656;2023-07-16T10:27:28;0.70;;;0.57;;
41923;SDS011;27613;48.116;11.656;2023-07-16T10:29:58;1.35;;;0.80;;
41923;SDS011;27613;48.116;11.656;2023-07-16T10:32:26;1.02;;;0.70;;
41923;SDS011;27613;48.116;11.656;2023-07-16T10:34:53;0.80;;;0.70;;
41923;SDS011;27613;48.116;11.656;2023-07-16T10:37:19;0.70;;;0.70;;
41923;SDS011;27613;48.116;11.656;2023-07-16T10:39:48;0.75;;;0.70;;
41923;SDS011;27613;48.116;11.656;2023-07-16T10:42:18;0.70;;;0.70;;
41923;SDS011;27613;48.116;11.656;2023-07-16T10:44:45;0.63;;;0.60;;
41923;SDS011;27613;48.116;11.656;2023-07-16T10:47:18;0.73;;;0.60;;
41923;SDS011;27613;48.116;11.656;2023-07-16T10:50:03;2.55;;;1.30;;
41923;SDS011;27613;48.116;11.656;2023-07-16T10:52:33;1.20;;;0.90;;
41923;SDS011;27613;48.116;11.656;2023-07-16T10:55:00;1.40;;;0.80;;
41923;SDS011;27613;48.116;11.656;2023-07-16T10:57:26;0.80;;;0.73;;
41923;SDS011;27613;48.116;11.656;2023-07-16T10:59:53;0.70;;;0.70;;
41923;SDS011;27613;48.116;11.656;2023-07-16T11:02:20;0.90;;;0.80;;
41923;SDS011;27613;48.116;11.656;2023-07-16T11:04:47;0.80;;;0.70;;
41923;SDS011;27613;48.116;11.656;2023-07-16T11:07:14;1.17;;;0.80;;
41923;SDS011;27613;48.116;11.656;2023-07-16T11:09:44;1.00;;;0.90;;
41923;SDS011;27613;48.116;11.656;2023-07-16T11:12:12;1.67;;;0.90;;
41923;SDS011;27613;48.116;11.656;2023-07-16T11:14:39;0.93;;;0.85;;
41923;SDS011;27613;48.116;11.656;2023-07-16T11:17:08;5.47;;;0.90;;
41923;SDS011;27613;48.116;11.656;2023-07-16T11:19:34;0.93;;;0.80;;
41923;SDS011;27613;48.116;11.656;2023-07-16T11:22:01;1.20;;;0.65;;
41923;SDS011;27613;48.116;11.656;2023-07-16T11:24:28;1.15;;;0.77;;
41923;SDS011;27613;48.116;11.656;2023-07-16T11:26:54;1.17;;;0.77;;
41923;SDS011;27613;48.116;11.656;2023-07-16T11:29:22;0.70;;;0.70;;
41923;SDS011;27613;48.116;11.656;2023-07-16T11:31:48;1.30;;;0.90;;
41923;SDS011;27613;48.116;11.656;2023-07-16T11:34:19;0.75;;;0.60;;
41923;SDS011;27613;48.116;11.656;2023-07-16T11:36:46;1.02;;;0.88;;
41923;SDS011;27613;48.116;11.656;2023-07-16T11:39:11;1.10;;;0.80;;
41923;SDS011;27613;48.116;11.656;2023-07-16T11:41:37;1.33;;;1.00;;
41923;SDS011;27613;48.116;11.656;2023-07-16T11:44:03;1.10;;;0.90;;
41923;SDS011;27613;48.116;11.656;2023-07-16T11:46:32;1.20;;;0.98;;
41923;SDS011;27613;48.116;11.656;2023-07-16T11:48:58;0.80;;;0.80;;
41923;SDS011;27613;48.116;11.656;2023-07-16T11:51:24;1.20;;;0.88;;
41923;SDS011;27613;48.116;11.656;2023-07-16T11:53:49;0.80;;;0.80;;
41923;SDS011;27613;48.116;11.656;2023-07-16T11:56:15;1.17;;;0.93;;
41923;SDS011;27613;48.116;11.656;2023-07-16T11:58:40;1.17;;;0.90;;
41923;SDS011;27613;48.116;11.656;2023-07-16T12:01:06;1.25;;;0.82;;
41923;SDS011;27613;48.116;11.656;2023-07-16T12:03:32;1.10;;;0.80;;
41923;SDS011;27613;48.116;11.656;2023-07-16T12:05:57;1.10;;;0.80;;
41923;SDS011;27613;48.116;11.656;2023-07-16T12:08:23;0.90;;;0.80;;
41923;SDS011;27613;48.116;11.656;2023-07-16T12:10:48;1.35;;;0.90;;
41923;SDS011;27613;48.116;11.656;2023-07-16T12:13:14;1.63;;;1.00;;
41923;SDS011;27613;48.116;11.656;2023-07-16T12:15:40;1.95;;;1.05;;
41923;SDS011;27613;48.116;11.656;2023-07-16T12:18:05;1.05;;;0.88;;
41923;SDS011;27613;48.116;11.656;2023-07-16T12:20:31;1.08;;;0.82;;
41923;SDS011;27613;48.116;11.656;2023-07-16T12:22:56;1.20;;;0.70;;
41923;SDS011;27613;48.116;11.656;2023-07-16T12:25:22;1.20;;;0.90;;
41923;SDS011;27613;48.116;11.656;2023-07-16T12:27:47;1.85;;;0.90;;
41923;SDS011;27613;48.116;11.656;2023-07-16T12:30:13;1.35;;;1.05;;
41923;SDS011;27613;48.116;11.656;2023-07-16T12:32:38;1.60;;;1.20;;
41923;SDS011;27613;48.116;11.656;2023-07-16T12:35:04;1.10;;;0.90;;
41923;SDS011;27613;48.116;11.656;2023-07-16T12:37:30;1.20;;;1.05;;
41923;SDS011;27613;48.116;11.656;2023-07-16T12:39:55;1.30;;;1.00;;
41923;SDS011;27613;48.116;11.656;2023-07-16T12:42:21;1.33;;;0.85;;
41923;SDS011;27613;48.116;11.656;2023-07-16T12:44:46;1.63;;;1.10;;
41923;SDS011;27613;48.116;11.656;2023-07-16T12:47:14;2.10;;;1.13;;
41923;SDS011;27613;48.116;11.656;2023-07-16T12:49:40;0.98;;;0.88;;
41923;SDS011;27613;48.116;11.656;2023-07-16T12:52:05;2.95;;;0.82;;
41923;SDS011;27613;48.116;11.656;2023-07-16T12:54:31;0.98;;;0.88;;
41923;SDS011;27613;48.116;11.656;2023-07-16T12:56:57;1.33;;;0.90;;
41923;SDS011;27613;48.116;11.656;2023-07-16T12:59:22;0.70;;;0.70;;
41923;SDS011;27613;48.116;11.656;2023-07-16T13:01:49;0.80;;;0.80;;
41923;SDS011;27613;48.116;11.656;2023-07-16T13:04:15;1.13;;;0.98;;
41923;SDS011;27613;48.116;11.656;2023-07-16T13:06:41;1.08;;;0.90;;
41923;SDS011;27613;48.116;11.656;2023-07-16T13:09:07;1.50;;;1.10;;
41923;SDS011;27613;48.116;11.656;2023-07-16T13:11:33;0.93;;;0.88;;
41923;SDS011;27613;48.116;11.656;2023-07-16T13:13:58;0.95;;;0.85;;
41923;SDS011;27613;48.116;11.656;2023-07-16T13:16:24;1.50;;;1.17;;
41923;SDS011;27613;48.116;11.656;2023-07-16T13:18:50;0.95;;;0.77;;
41923;SDS011;27613;48.116;11.656;2023-07-16T13:21:15;1.38;;;0.90;;
41923;SDS011;27613;48.116;11.656;2023-07-16T13:23:41;1.27;;;0.80;;
41923;SDS011;27613;48.116;11.656;2023-07-16T13:26:06;3.17;;;1.10;;
41923;SDS011;27613;48.116;11.656;2023-07-16T13:28:32;1.67;;;1.13;;
41923;SDS011;27613;48.116;11.656;2023-07-16T13:30:57;0.80;;;0.80;;
41923;SDS011;27613;48.116;11.656;2023-07-16T13:33:23;1.52;;;1.10;;
41923;SDS011;27613;48.116;11.656;2023-07-16T13:35:49;1.25;;;1.00;;
41923;SDS011;27613;48.116;11.656;2023-07-16T13:38:14;1.65;;;0.90;;
41923;SDS011;27613;48.116;11.656;2023-07-16T13:40:40;1.02;;;0.90;;
41923;SDS011;27613;48.116;11.656;2023-07-16T13:43:05;1.00;;;0.88;;
41923;SDS011;27613;48.116;11.656;2023-07-16T13:45:31;1.40;;;1.00;;
41923;SDS011;27613;48.116;11.656;2023-07-16T13:47:58;1.42;;;0.88;;
41923;SDS011;27613;48.116;11.656;2023-07-16T13:50:23;2.08;;;1.05;;
41923;SDS011;27613;48.116;11.656;2023-07-16T13:52:49;1.70;;;1.10;;
41923;SDS011;27613;48.116;11.656;2023-07-16T13:55:14;1.85;;;0.90;;
41923;SDS011;27613;48.116;11.656;2023-07-16T13:57:40;1.63;;;0.98;;
41923;SDS011;27613;48.116;11.656;2023-07-16T14:00:06;2.13;;;1.05;;
41923;SDS011;27613;48.116;11.656;2023-07-16T14:02:35;2.00;;;1.15;;
41923;SDS011;27613;48.116;11.656;2023-07-16T14:05:01;1.08;;;0.90;;
41923;SDS011;27613;48.116;11.656;2023-07-16T14:07:26;1.33;;;0.93;;
41923;SDS011;27613;48.116;11.656;2023-07-16T14:09:52;1.38;;;1.10;;
41923;SDS011;27613;48.116;11.656;2023-07-16T14:12:17;1.67;;;0.93;;
41923;SDS011;27613;48.116;11.656;2023-07-16T14:14:43;1.92;;;1.10;;
41923;SDS011;27613;48.116;11.656;2023-07-16T14:17:08;1.73;;;1.17;;
41923;SDS011;27613;48.116;11.656;2023-07-16T14:19:34;1.10;;;1.00;;
41923;SDS011;27613;48.116;11.656;2023-07-16T14:22:00;1.70;;;1.00;;
41923;SDS011;27613;48.116;11.656;2023-07-16T14:24:26;2.38;;;1.42;;
41923;SDS011;27613;48.116;11.656;2023-07-16T14:26:51;1.27;;;1.00;;
41923;SDS011;27613;48.116;11.656;2023-07-16T14:29:17;1.35;;;1.10;;
41923;SDS011;27613;48.116;11.656;2023-07-16T14:31:42;1.27;;;0.98;;
41923;SDS011;27613;48.116;11.656;2023-07-16T14:34:08;2.38;;;1.23;;
41923;SDS011;27613;48.116;11.656;2023-07-16T14:36:33;2.47;;;1.30;;
41923;SDS011;27613;48.116;11.656;2023-07-16T14:38:59;1.45;;;1.20;;